sensor_id;sensor_type;location;lat;lon;timestamp;pressure;altitude;pressure_sealevel;temperature;humidity
22031;BME280;11179;52.106;21.024;2023-11-22T00:00:08;101047.00;;;-1.85;62.80
22031;BME280;11179;52.106;21.024;2023-11-22T00:02:34;101059.28;;;-1.91;62.63
22031;BME280;11179;52.106;21.024;2023-11-22T00:05:00;101060.97;;;-1.90;62.57
22031;BME280;11179;52.106;21.024;2023-11-22T00:07:25;101045.16;;;-2.19;62.82
22031;BME280;11179;52.106;21.024;2023-11-22T00:09:54;101047.69;;;-2.17;62.92
22031;BME280;11179;52.106;21.024;2023-11-22T00:12:20;101078.13;;;-1.91;62.87
22031;BME280;11179;52.106;21.024;2023-11-22T00:14:45;101065.34;;;-1.89;62.79
22031;BME280;11179;52.106;21.024;2023-11-22T00:17:11;101074.28;;;-1.88;62.77
22031;BME280;11179;52.106;21.024;2023-11-22T00:19:37;101054.97;;;-2.10;62.82
22031;BME280;11179;52.106;21.024;2023-11-22T00:22:03;101059.41;;;-2.01;62.92
22031;BME280;11179;52.106;21.024;2023-11-22T00:24:36;101067.34;;;-1.91;63.03
22031;BME280;11179;52.106;21.024;2023-11-22T00:27:02;101036.78;;;-2.16;62.90
22031;BME280;11179;52.106;21.024;2023-11-22T00:29:27;101093.34;;;-2.00;62.71
22031;BME280;11179;52.106;21.024;2023-11-22T00:31:52;101097.38;;;-2.04;62.60
22031;BME280;11179;52.106;21.024;2023-11-22T00:34:18;101073.75;;;-2.18;62.65
22031;BME280;11179;52.106;21.024;2023-11-22T00:36:43;101069.16;;;-2.25;62.86
22031;BME280;11179;52.106;21.024;2023-11-22T00:39:08;101075.53;;;-2.26;62.80
22031;BME280;11179;52.106;21.024;2023-11-22T00:41:38;101099.69;;;-2.09;62.79
22031;BME280;11179;52.106;21.024;2023-11-22T00:44:04;101102.38;;;-2.09;62.56
22031;BME280;11179;52.106;21.024;2023-11-22T00:46:31;101063.88;;;-2.35;62.96
22031;BME280;11179;52.106;21.024;2023-11-22T00:48:56;101087.63;;;-2.30;62.63
22031;BME280;11179;52.106;21.024;2023-11-22T00:51:22;101083.56;;;-2.34;62.43
22031;BME280;11179;52.106;21.024;2023-11-22T00:53:47;101114.09;;;-2.18;62.71
22031;BME280;11179;52.106;21.024;2023-11-22T00:56:13;101096.88;;;-2.25;62.36
22031;BME280;11179;52.106;21.024;2023-11-22T00:58:38;101100.97;;;-2.21;62.50
22031;BME280;11179;52.106;21.024;2023-11-22T01:01:04;101085.25;;;-2.33;62.57
22031;BME280;11179;52.106;21.024;2023-11-22T01:03:30;101098.59;;;-2.24;62.31
22031;BME280;11179;52.106;21.024;2023-11-22T01:05:55;101077.44;;;-2.45;62.43
22031;BME280;11179;52.106;21.024;2023-11-22T01:08:21;101089.56;;;-2.41;62.18
22031;BME280;11179;52.106;21.024;2023-11-22T01:10:47;101117.56;;;-2.25;62.47
22031;BME280;11179;52.106;21.024;2023-11-22T01:13:12;101104.06;;;-2.33;62.17
22031;BME280;11179;52.106;21.024;2023-11-22T01:15:40;101104.00;;;-2.42;62.46
22031;BME280;11179;52.106;21.024;2023-11-22T01:18:05;101098.94;;;-2.45;62.28
22031;BME280;11179;52.106;21.024;2023-11-22T01:20:30;101115.53;;;-2.31;62.55
22031;BME280;11179;52.106;21.024;2023-11-22T01:22:56;101110.75;;;-2.38;62.21
22031;BME280;11179;52.106;21.024;2023-11-22T01:25:21;101081.81;;;-2.61;62.10
22031;BME280;11179;52.106;21.024;2023-11-22T01:27:46;101097.00;;;-2.52;62.27
22031;BME280;11179;52.106;21.024;2023-11-22T01:30:12;101125.03;;;-2.37;62.23
22031;BME280;11179;52.106;21.024;2023-11-22T01:32:37;101104.63;;;-2.48;62.32
22031;BME280;11179;52.106;21.024;2023-11-22T01:35:03;101143.72;;;-2.36;61.95
22031;BME280;11179;52.106;21.024;2023-11-22T01:37:30;101121.16;;;-2.43;62.31
22031;BME280;11179;52.106;21.024;2023-11-22T01:39:56;101121.50;;;-2.38;61.75
22031;BME280;11179;52.106;21.024;2023-11-22T01:42:21;101108.09;;;-2.55;61.96
22031;BME280;11179;52.106;21.024;2023-11-22T01:44:48;101106.78;;;-2.51;62.02
22031;BME280;11179;52.106;21.024;2023-11-22T01:47:14;101095.28;;;-2.61;61.72
22031;BME280;11179;52.106;21.024;2023-11-22T01:49:40;101143.03;;;-2.38;61.75
22031;BME280;11179;52.106;21.024;2023-11-22T01:52:05;101136.94;;;-2.40;61.83
22031;BME280;11179;52.106;21.024;2023-11-22T01:54:32;101105.03;;;-2.60;61.59
22031;BME280;11179;52.106;21.024;2023-11-22T01:56:58;101137.34;;;-2.34;61.71
22031;BME280;11179;52.106;21.024;2023-11-22T01:59:25;101103.88;;;-2.58;61.64
22031;BME280;11179;52.106;21.024;2023-11-22T02:01:53;101139.03;;;-2.33;61.71
22031;BME280;11179;52.106;21.024;2023-11-22T02:04:19;101134.25;;;-2.40;61.50
22031;BME280;11179;52.106;21.024;2023-11-22T02:06:46;101148.66;;;-2.49;61.34
22031;BME280;11179;52.106;21.024;2023-11-22T02:09:11;101166.22;;;-2.37;61.19
22031;BME280;11179;52.106;21.024;2023-11-22T02:11:41;101141.44;;;-2.48;61.17
22031;BME280;11179;52.106;21.024;2023-11-22T02:14:07;101150.41;;;-2.40;61.33
22031;BME280;11179;52.106;21.024;2023-11-22T02:16:34;101143.56;;;-2.52;61.13
22031;BME280;11179;52.106;21.024;2023-11-22T02:19:00;101165.94;;;-2.51;60.71
22031;BME280;11179;52.106;21.024;2023-11-22T02:21:25;101157.09;;;-2.61;61.01
22031;BME280;11179;52.106;21.024;2023-11-22T02:23:50;101165.78;;;-2.50;61.11
22031;BME280;11179;52.106;21.024;2023-11-22T02:26:16;101165.78;;;-2.50;60.72
22031;BME280;11179;52.106;21.024;2023-11-22T02:28:43;101174.09;;;-2.61;60.70
22031;BME280;11179;52.106;21.024;2023-11-22T02:31:08;101176.16;;;-2.55;60.61
22031;BME280;11179;52.106;21.024;2023-11-22T02:33:34;101187.28;;;-2.50;60.67
22031;BME280;11179;52.106;21.024;2023-11-22T02:36:01;101161.94;;;-2.65;60.52
22031;BME280;11179;52.106;21.024;2023-11-22T02:38:28;101180.56;;;-2.54;60.33
22031;BME280;11179;52.106;21.024;2023-11-22T02:40:53;101158.50;;;-2.57;60.61
22031;BME280;11179;52.106;21.024;2023-11-22T02:43:19;101167.25;;;-2.55;60.43
22031;BME280;11179;52.106;21.024;2023-11-22T02:45:45;101180.69;;;-2.55;60.16
22031;BME280;11179;52.106;21.024;2023-11-22T02:48:10;101177.78;;;-2.62;60.08
22031;BME280;11179;52.106;21.024;2023-11-22T02:50:36;101178.28;;;-2.76;59.98
22031;BME280;11179;52.106;21.024;2023-11-22T02:53:04;101171.16;;;-2.85;60.17
22031;BME280;11179;52.106;21.024;2023-11-22T02:55:30;101181.81;;;-2.76;60.02
22031;BME280;11179;52.106;21.024;2023-11-22T02:57:55;101171.69;;;-2.82;59.63
22031;BME280;11179;52.106;21.024;2023-11-22T03:00:21;101182.44;;;-2.82;59.87
22031;BME280;11179;52.106;21.024;2023-11-22T03:02:47;101201.50;;;-2.75;59.77
22031;BME280;11179;52.106;21.024;2023-11-22T03:05:13;101208.41;;;-2.73;59.81
22031;BME280;11179;52.106;21.024;2023-11-22T03:07:41;101204.47;;;-2.78;59.81
22031;BME280;11179;52.106;21.024;2023-11-22T03:10:07;101181.19;;;-2.87;60.05
22031;BME280;11179;52.106;21.024;2023-11-22T03:12:33;101207.97;;;-2.68;59.78
22031;BME280;11179;52.106;21.024;2023-11-22T03:14:59;101209.94;;;-2.70;59.66
22031;BME280;11179;52.106;21.024;2023-11-22T03:17:27;101202.56;;;-2.86;59.38
22031;BME280;11179;52.106;21.024;2023-11-22T03:19:56;101228.00;;;-2.80;59.45
22031;BME280;11179;52.106;21.024;2023-11-22T03:22:23;101197.28;;;-3.05;59.43
22031;BME280;11179;52.106;21.024;2023-11-22T03:24:49;101211.81;;;-2.98;59.47
22031;BME280;11179;52.106;21.024;2023-11-22T03:27:14;101228.16;;;-2.91;59.33
22031;BME280;11179;52.106;21.024;2023-11-22T03:29:39;101206.69;;;-3.19;59.07
22031;BME280;11179;52.106;21.024;2023-11-22T03:32:05;101240.41;;;-3.07;59.36
22031;BME280;11179;52.106;21.024;2023-11-22T03:34:30;101257.22;;;-2.95;59.42
22031;BME280;11179;52.106;21.024;2023-11-22T03:36:56;101228.44;;;-3.12;59.32
22031;BME280;11179;52.106;21.024;2023-11-22T03:39:22;101254.06;;;-2.90;59.19
22031;BME280;11179;52.106;21.024;2023-11-22T03:41:48;101226.44;;;-3.10;59.25
22031;BME280;11179;52.106;21.024;2023-11-22T03:44:13;101269.03;;;-2.88;59.13
22031;BME280;11179;52.106;21.024;2023-11-22T03:46:39;101199.09;;;-3.33;59.07
22031;BME280;11179;52.106;21.024;2023-11-22T03:49:05;101257.34;;;-2.96;59.15
22031;BME280;11179;52.106;21.024;2023-11-22T03:51:32;101277.50;;;-2.83;59.33
22031;BME280;11179;52.106;21.024;2023-11-22T03:53:58;101300.16;;;-2.85;59.25
22031;BME280;11179;52.106;21.024;2023-11-22T03:56:23;101239.53;;;-3.25;59.13
22031;BME280;11179;52.106;21.024;2023-11-22T03:58:49;101248.00;;;-3.29;59.22
22031;BME280;11179;52.106;21.024;2023-11-22T04:01:14;101285.31;;;-3.26;59.38
22031;BME280;11179;52.106;21.024;2023-11-22T04:03:41;101274.63;;;-3.46;59.19
22031;BME280;11179;52.106;21.024;2023-11-22T04:06:06;101316.69;;;-3.27;59.29
22031;BME280;11179;52.106;21.024;2023-11-22T04:08:32;101278.31;;;-3.56;59.39
22031;BME280;11179;52.106;21.024;2023-11-22T04:10:57;101323.25;;;-3.39;59.34
22031;BME280;11179;52.106;21.024;2023-11-22T04:13:22;101337.09;;;-3.34;59.28
22031;BME280;11179;52.106;21.024;2023-11-22T04:15:50;101335.25;;;-3.43;59.27
22031;BME280;11179;52.106;21.024;2023-11-22T04:18:15;101354.03;;;-3.43;59.39
22031;BME280;11179;52.106;21.024;2023-11-22T04:20:41;101300.69;;;-3.85;59.51
22031;BME280;11179;52.106;21.024;2023-11-22T04:23:06;101319.03;;;-3.80;59.53
22031;BME280;11179;52.106;21.024;2023-11-22T04:25:31;101346.88;;;-3.62;59.46
22031;BME280;11179;52.106;21.024;2023-11-22T04:27:59;101318.47;;;-3.84;59.59
22031;BME280;11179;52.106;21.024;2023-11-22T04:30:24;101372.72;;;-3.61;59.51
22031;BME280;11179;52.106;21.024;2023-11-22T04:32:50;101382.75;;;-3.72;59.46
22031;BME280;11179;52.106;21.024;2023-11-22T04:35:15;101352.66;;;-3.95;59.51
22031;BME280;11179;52.106;21.024;2023-11-22T04:37:40;101365.50;;;-3.99;59.59
22031;BME280;11179;52.106;21.024;2023-11-22T04:40:06;101388.38;;;-3.95;59.57
22031;BME280;11179;52.106;21.024;2023-11-22T04:42:36;101388.38;;;-3.95;59.76
22031;BME280;11179;52.106;21.024;2023-11-22T04:45:02;101380.31;;;-4.04;59.68
22031;BME280;11179;52.106;21.024;2023-11-22T04:47:28;101381.19;;;-4.04;59.71
22031;BME280;11179;52.106;21.024;2023-11-22T04:49:53;101383.56;;;-4.10;59.46
22031;BME280;11179;52.106;21.024;2023-11-22T04:52:18;101366.03;;;-4.24;59.57
22031;BME280;11179;52.106;21.024;2023-11-22T04:54:44;101385.38;;;-4.21;59.40
22031;BME280;11179;52.106;21.024;2023-11-22T04:57:09;101387.06;;;-4.29;59.50
22031;BME280;11179;52.106;21.024;2023-11-22T04:59:35;101407.69;;;-4.20;59.43
22031;BME280;11179;52.106;21.024;2023-11-22T05:02:00;101388.72;;;-4.38;59.33
22031;BME280;11179;52.106;21.024;2023-11-22T05:04:26;101382.75;;;-4.51;59.32
22031;BME280;11179;52.106;21.024;2023-11-22T05:06:52;101409.28;;;-4.48;59.69
22031;BME280;11179;52.106;21.024;2023-11-22T05:09:17;101418.31;;;-4.49;59.54
22031;BME280;11179;52.106;21.024;2023-11-22T05:11:43;101387.63;;;-4.66;59.35
22031;BME280;11179;52.106;21.024;2023-11-22T05:14:10;101402.44;;;-4.62;59.59
22031;BME280;11179;52.106;21.024;2023-11-22T05:16:35;101435.25;;;-4.48;59.39
22031;BME280;11179;52.106;21.024;2023-11-22T05:19:01;101436.22;;;-4.49;59.34
22031;BME280;11179;52.106;21.024;2023-11-22T05:21:26;101442.00;;;-4.54;59.41
22031;BME280;11179;52.106;21.024;2023-11-22T05:23:51;101450.56;;;-4.60;59.29
22031;BME280;11179;52.106;21.024;2023-11-22T05:26:19;101457.03;;;-4.63;59.41
22031;BME280;11179;52.106;21.024;2023-11-22T05:28:45;101443.84;;;-4.75;59.44
22031;BME280;11179;52.106;21.024;2023-11-22T05:31:12;101430.88;;;-4.80;59.39
22031;BME280;11179;52.106;21.024;2023-11-22T05:33:37;101395.47;;;-5.04;59.59
22031;BME280;11179;52.106;21.024;2023-11-22T05:36:03;101430.69;;;-4.88;59.61
22031;BME280;11179;52.106;21.024;2023-11-22T05:38:28;101414.22;;;-5.04;59.50
22031;BME280;11179;52.106;21.024;2023-11-22T05:40:54;101458.19;;;-4.86;59.60
22031;BME280;11179;52.106;21.024;2023-11-22T05:43:19;101443.22;;;-4.89;59.48
22031;BME280;11179;52.106;21.024;2023-11-22T05:45:50;101457.06;;;-4.83;59.61
22031;BME280;11179;52.106;21.024;2023-11-22T05:48:16;101451.78;;;-4.95;59.45
22031;BME280;11179;52.106;21.024;2023-11-22T05:50:41;101451.50;;;-4.92;59.51
22031;BME280;11179;52.106;21.024;2023-11-22T05:53:06;101467.19;;;-4.87;59.44
22031;BME280;11179;52.106;21.024;2023-11-22T05:55:31;101453.53;;;-5.05;59.54
22031;BME280;11179;52.106;21.024;2023-11-22T05:57:57;101486.03;;;-4.98;59.79
22031;BME280;11179;52.106;21.024;2023-11-22T06:00:22;101477.59;;;-5.14;59.88
22031;BME280;11179;52.106;21.024;2023-11-22T06:02:47;101471.84;;;-5.10;59.85
22031;BME280;11179;52.106;21.024;2023-11-22T06:05:13;101501.75;;;-5.05;59.81
22031;BME280;11179;52.106;21.024;2023-11-22T06:07:38;101501.63;;;-5.03;59.95
22031;BME280;11179;52.106;21.024;2023-11-22T06:10:04;101503.78;;;-4.97;59.79
22031;BME280;11179;52.106;21.024;2023-11-22T06:12:29;101499.78;;;-5.03;59.78
22031;BME280;11179;52.106;21.024;2023-11-22T06:14:54;101511.41;;;-4.93;59.67
22031;BME280;11179;52.106;21.024;2023-11-22T06:17:20;101520.00;;;-4.99;59.58
22031;BME280;11179;52.106;21.024;2023-11-22T06:19:45;101498.50;;;-5.08;59.75
22031;BME280;11179;52.106;21.024;2023-11-22T06:22:11;101509.28;;;-4.99;59.40
22031;BME280;11179;52.106;21.024;2023-11-22T06:24:37;101501.06;;;-5.07;59.55
22031;BME280;11179;52.106;21.024;2023-11-22T06:27:02;101525.81;;;-4.94;59.69
22031;BME280;11179;52.106;21.024;2023-11-22T06:29:28;101519.53;;;-5.04;59.38
22031;BME280;11179;52.106;21.024;2023-11-22T06:31:54;101534.50;;;-5.01;59.54
22031;BME280;11179;52.106;21.024;2023-11-22T06:34:19;101529.25;;;-5.03;59.60
22031;BME280;11179;52.106;21.024;2023-11-22T06:36:45;101542.03;;;-4.95;59.66
22031;BME280;11179;52.106;21.024;2023-11-22T06:39:10;101541.41;;;-4.78;59.54
22031;BME280;11179;52.106;21.024;2023-11-22T06:41:40;101524.50;;;-4.78;59.46
22031;BME280;11179;52.106;21.024;2023-11-22T06:44:06;101548.50;;;-4.56;59.47
22031;BME280;11179;52.106;21.024;2023-11-22T06:46:31;101467.06;;;-4.85;59.31
22031;BME280;11179;52.106;21.024;2023-11-22T06:48:56;101528.94;;;-4.47;58.81
22031;BME280;11179;52.106;21.024;2023-11-22T06:51:22;101549.09;;;-4.22;58.86
22031;BME280;11179;52.106;21.024;2023-11-22T06:53:47;101537.84;;;-4.16;59.42
22031;BME280;11179;52.106;21.024;2023-11-22T06:56:13;101541.56;;;-3.98;59.23
22031;BME280;11179;52.106;21.024;2023-11-22T06:58:38;101559.47;;;-3.77;58.85
22031;BME280;11179;52.106;21.024;2023-11-22T07:01:03;101572.03;;;-3.68;58.70
22031;BME280;11179;52.106;21.024;2023-11-22T07:03:29;101517.88;;;-3.93;58.43
22031;BME280;11179;52.106;21.024;2023-11-22T07:05:54;101571.94;;;-3.57;58.16
22031;BME280;11179;52.106;21.024;2023-11-22T07:08:19;101583.84;;;-3.50;58.00
22031;BME280;11179;52.106;21.024;2023-11-22T07:10:45;101572.53;;;-3.54;57.80
22031;BME280;11179;52.106;21.024;2023-11-22T07:13:11;101581.88;;;-3.48;56.68
22031;BME280;11179;52.106;21.024;2023-11-22T07:15:38;101588.50;;;-3.52;57.12
22031;BME280;11179;52.106;21.024;2023-11-22T07:18:03;101591.19;;;-3.33;57.15
22031;BME280;11179;52.106;21.024;2023-11-22T07:20:29;101587.84;;;-3.35;56.61
22031;BME280;11179;52.106;21.024;2023-11-22T07:22:54;101596.47;;;-3.22;56.81
22031;BME280;11179;52.106;21.024;2023-11-22T07:25:23;101594.34;;;-3.18;56.34
22031;BME280;11179;52.106;21.024;2023-11-22T07:27:51;101608.66;;;-3.08;56.29
22031;BME280;11179;52.106;21.024;2023-11-22T07:30:17;101613.19;;;-2.99;56.46
22031;BME280;11179;52.106;21.024;2023-11-22T07:32:48;101618.84;;;-2.92;56.10
22031;BME280;11179;52.106;21.024;2023-11-22T07:35:13;101618.16;;;-2.85;56.09
22031;BME280;11179;52.106;21.024;2023-11-22T07:37:40;101620.84;;;-2.75;55.82
22031;BME280;11179;52.106;21.024;2023-11-22T07:40:08;101618.16;;;-2.75;55.35
22031;BME280;11179;52.106;21.024;2023-11-22T07:42:34;101599.91;;;-2.81;55.34
22031;BME280;11179;52.106;21.024;2023-11-22T07:45:00;101601.03;;;-2.84;55.04
22031;BME280;11179;52.106;21.024;2023-11-22T07:47:25;101597.06;;;-2.89;55.46
22031;BME280;11179;52.106;21.024;2023-11-22T07:49:51;101624.09;;;-2.62;55.05
22031;BME280;11179;52.106;21.024;2023-11-22T07:52:17;101630.88;;;-2.48;54.72
22031;BME280;11179;52.106;21.024;2023-11-22T07:54:42;101631.16;;;-2.42;54.66
22031;BME280;11179;52.106;21.024;2023-11-22T07:57:07;101622.13;;;-2.60;53.50
22031;BME280;11179;52.106;21.024;2023-11-22T07:59:33;101608.81;;;-2.71;54.10
22031;BME280;11179;52.106;21.024;2023-11-22T08:01:58;101620.72;;;-2.54;54.19
22031;BME280;11179;52.106;21.024;2023-11-22T08:04:26;101611.06;;;-2.66;54.00
22031;BME280;11179;52.106;21.024;2023-11-22T08:06:53;101629.19;;;-2.59;54.04
22031;BME280;11179;52.106;21.024;2023-11-22T08:09:22;101602.47;;;-2.70;54.24
22031;BME280;11179;52.106;21.024;2023-11-22T08:11:48;101614.19;;;-2.71;53.69
22031;BME280;11179;52.106;21.024;2023-11-22T08:14:13;101602.28;;;-2.78;53.65
22031;BME280;11179;52.106;21.024;2023-11-22T08:16:39;101607.41;;;-2.75;53.69
22031;BME280;11179;52.106;21.024;2023-11-22T08:19:08;101621.53;;;-2.63;53.40
22031;BME280;11179;52.106;21.024;2023-11-22T08:21:34;101637.84;;;-2.55;53.14
22031;BME280;11179;52.106;21.024;2023-11-22T08:23:59;101629.19;;;-2.78;53.02
22031;BME280;11179;52.106;21.024;2023-11-22T08:26:25;101605.13;;;-2.99;53.29
22031;BME280;11179;52.106;21.024;2023-11-22T08:28:51;101628.47;;;-2.90;53.22
22031;BME280;11179;52.106;21.024;2023-11-22T08:31:16;101613.19;;;-2.89;53.22
22031;BME280;11179;52.106;21.024;2023-11-22T08:33:41;101622.09;;;-2.79;53.23
22031;BME280;11179;52.106;21.024;2023-11-22T08:36:08;101633.72;;;-2.59;53.20
22031;BME280;11179;52.106;21.024;2023-11-22T08:38:34;101624.22;;;-2.63;53.13
22031;BME280;11179;52.106;21.024;2023-11-22T08:41:03;101618.28;;;-2.77;52.46
22031;BME280;11179;52.106;21.024;2023-11-22T08:43:30;101656.94;;;-2.68;52.43
22031;BME280;11179;52.106;21.024;2023-11-22T08:45:57;101654.53;;;-2.71;51.79
22031;BME280;11179;52.106;21.024;2023-11-22T08:48:22;101656.50;;;-2.63;52.19
22031;BME280;11179;52.106;21.024;2023-11-22T08:50:48;101654.09;;;-2.57;52.27
22031;BME280;11179;52.106;21.024;2023-11-22T08:53:14;101659.59;;;-2.39;52.25
22031;BME280;11179;52.106;21.024;2023-11-22T08:55:40;101658.75;;;-2.20;52.16
22031;BME280;11179;52.106;21.024;2023-11-22T08:58:05;101623.09;;;-2.42;52.08
22031;BME280;11179;52.106;21.024;2023-11-22T09:00:33;101657.47;;;-2.26;52.13
22031;BME280;11179;52.106;21.024;2023-11-22T09:02:58;101666.41;;;-2.16;51.66
22031;BME280;11179;52.106;21.024;2023-11-22T09:05:24;101651.53;;;-2.29;51.71
22031;BME280;11179;52.106;21.024;2023-11-22T09:07:50;101673.72;;;-2.08;51.78
22031;BME280;11179;52.106;21.024;2023-11-22T09:10:16;101675.69;;;-1.91;51.84
22031;BME280;11179;52.106;21.024;2023-11-22T09:12:43;101688.28;;;-1.82;51.54
22031;BME280;11179;52.106;21.024;2023-11-22T09:15:11;101689.41;;;-1.75;51.46
22031;BME280;11179;52.106;21.024;2023-11-22T09:17:38;101673.53;;;-1.78;51.34
22031;BME280;11179;52.106;21.024;2023-11-22T09:20:15;101685.16;;;-1.77;51.10
22031;BME280;11179;52.106;21.024;2023-11-22T09:22:47;101652.03;;;-1.97;50.91
22031;BME280;11179;52.106;21.024;2023-11-22T09:25:17;101693.91;;;-1.66;50.99
22031;BME280;11179;52.106;21.024;2023-11-22T09:27:44;101686.06;;;-1.59;50.77
22031;BME280;11179;52.106;21.024;2023-11-22T09:30:15;101686.81;;;-1.67;50.36
22031;BME280;11179;52.106;21.024;2023-11-22T09:32:47;101662.16;;;-1.72;50.62
22031;BME280;11179;52.106;21.024;2023-11-22T09:35:14;101679.25;;;-1.53;50.50
22031;BME280;11179;52.106;21.024;2023-11-22T09:37:40;101673.72;;;-1.52;50.28
22031;BME280;11179;52.106;21.024;2023-11-22T09:40:10;101682.41;;;-1.31;50.24
22031;BME280;11179;52.106;21.024;2023-11-22T09:42:36;101662.50;;;-1.47;49.97
22031;BME280;11179;52.106;21.024;2023-11-22T09:45:02;101657.56;;;-1.52;49.95
22031;BME280;11179;52.106;21.024;2023-11-22T09:47:32;101648.53;;;-1.60;50.00
22031;BME280;11179;52.106;21.024;2023-11-22T09:50:01;101655.28;;;-1.47;49.89
22031;BME280;11179;52.106;21.024;2023-11-22T09:52:32;101647.00;;;-1.36;49.87
22031;BME280;11179;52.106;21.024;2023-11-22T09:55:00;101658.91;;;-1.38;49.69
22031;BME280;11179;52.106;21.024;2023-11-22T09:57:27;101655.81;;;-1.43;49.71
22031;BME280;11179;52.106;21.024;2023-11-22T09:59:56;101641.97;;;-1.58;49.60
22031;BME280;11179;52.106;21.024;2023-11-22T10:02:22;101644.53;;;-1.56;50.05
22031;BME280;11179;52.106;21.024;2023-11-22T10:04:52;101634.34;;;-1.62;49.72
22031;BME280;11179;52.106;21.024;2023-11-22T10:07:18;101618.22;;;-1.72;49.93
22031;BME280;11179;52.106;21.024;2023-11-22T10:09:43;101632.94;;;-1.67;49.87
22031;BME280;11179;52.106;21.024;2023-11-22T10:12:11;101641.47;;;-1.71;49.40
22031;BME280;11179;52.106;21.024;2023-11-22T10:14:37;101632.25;;;-1.69;49.43
22031;BME280;11179;52.106;21.024;2023-11-22T10:17:04;101634.09;;;-1.69;49.09
22031;BME280;11179;52.106;21.024;2023-11-22T10:19:30;101641.84;;;-1.56;49.41
22031;BME280;11179;52.106;21.024;2023-11-22T10:22:06;101646.38;;;-1.57;48.94
22031;BME280;11179;52.106;21.024;2023-11-22T10:24:32;101630.50;;;-1.60;49.23
22031;BME280;11179;52.106;21.024;2023-11-22T10:27:03;101624.97;;;-1.58;49.16
22031;BME280;11179;52.106;21.024;2023-11-22T10:29:29;101621.28;;;-1.57;49.33
22031;BME280;11179;52.106;21.024;2023-11-22T10:31:55;101649.00;;;-1.38;49.42
22031;BME280;11179;52.106;21.024;2023-11-22T10:34:24;101644.59;;;-1.39;49.05
22031;BME280;11179;52.106;21.024;2023-11-22T10:36:50;101645.53;;;-1.30;49.28
22031;BME280;11179;52.106;21.024;2023-11-22T10:39:20;101640.00;;;-1.29;49.14
22031;BME280;11179;52.106;21.024;2023-11-22T10:41:45;101624.19;;;-1.41;49.22
22031;BME280;11179;52.106;21.024;2023-11-22T10:44:11;101653.72;;;-1.22;49.32
22031;BME280;11179;52.106;21.024;2023-11-22T10:46:39;101637.75;;;-1.33;49.17
22031;BME280;11179;52.106;21.024;2023-11-22T10:49:05;101658.66;;;-1.17;49.34
22031;BME280;11179;52.106;21.024;2023-11-22T10:51:31;101665.00;;;-1.09;49.20
22031;BME280;11179;52.106;21.024;2023-11-22T10:53:58;101668.78;;;-1.02;49.34
22031;BME280;11179;52.106;21.024;2023-11-22T10:56:26;101642.25;;;-1.06;49.32
22031;BME280;11179;52.106;21.024;2023-11-22T10:58:56;101631.81;;;-1.09;49.14
22031;BME280;11179;52.106;21.024;2023-11-22T11:01:26;101636.34;;;-1.10;49.27
22031;BME280;11179;52.106;21.024;2023-11-22T11:04:02;101643.53;;;-1.01;48.93
22031;BME280;11179;52.106;21.024;2023-11-22T11:06:33;101631.66;;;-1.08;49.02
22031;BME280;11179;52.106;21.024;2023-11-22T11:09:00;101653.16;;;-0.98;48.77
22031;BME280;11179;52.106;21.024;2023-11-22T11:11:28;101640.38;;;-0.96;48.76
22031;BME280;11179;52.106;21.024;2023-11-22T11:13:54;101623.25;;;-1.05;48.94
22031;BME280;11179;52.106;21.024;2023-11-22T11:16:20;101635.97;;;-0.97;48.66
22031;BME280;11179;52.106;21.024;2023-11-22T11:18:47;101652.31;;;-0.99;48.56
22031;BME280;11179;52.106;21.024;2023-11-22T11:21:15;101638.06;;;-1.09;48.32
22031;BME280;11179;52.106;21.024;2023-11-22T11:23:40;101630.41;;;-1.13;48.32
22031;BME280;11179;52.106;21.024;2023-11-22T11:26:16;101647.06;;;-1.00;48.48
22031;BME280;11179;52.106;21.024;2023-11-22T11:28:47;101643.28;;;-0.89;48.43
22031;BME280;11179;52.106;21.024;2023-11-22T11:31:13;101643.69;;;-0.84;48.57
22031;BME280;11179;52.106;21.024;2023-11-22T11:36:31;101618.81;;;-0.78;48.71
22031;BME280;11179;52.106;21.024;2023-11-22T11:39:00;101623.28;;;-0.69;48.79
22031;BME280;11179;52.106;21.024;2023-11-22T11:41:28;101617.19;;;-0.71;48.46
22031;BME280;11179;52.106;21.024;2023-11-22T11:43:55;101611.41;;;-0.76;48.42
22031;BME280;11179;52.106;21.024;2023-11-22T11:46:21;101642.69;;;-0.66;48.15
22031;BME280;11179;52.106;21.024;2023-11-22T11:48:49;101649.06;;;-0.67;47.97
22031;BME280;11179;52.106;21.024;2023-11-22T11:51:20;101610.94;;;-0.89;47.93
22031;BME280;11179;52.106;21.024;2023-11-22T11:53:47;101624.19;;;-0.78;48.25
22031;BME280;11179;52.106;21.024;2023-11-22T11:56:13;101631.03;;;-0.66;48.09
22031;BME280;11179;52.106;21.024;2023-11-22T11:58:40;101635.13;;;-0.62;48.42
22031;BME280;11179;52.106;21.024;2023-11-22T12:01:06;101641.44;;;-0.53;48.56
22031;BME280;11179;52.106;21.024;2023-11-22T12:03:33;101634.91;;;-0.51;48.32
22031;BME280;11179;52.106;21.024;2023-11-22T12:05:58;101628.50;;;-0.50;48.34
22031;BME280;11179;52.106;21.024;2023-11-22T12:08:23;101618.66;;;-0.59;48.44
22031;BME280;11179;52.106;21.024;2023-11-22T12:10:49;101624.03;;;-0.59;48.61
22031;BME280;11179;52.106;21.024;2023-11-22T12:13:18;101636.06;;;-0.53;48.30
22031;BME280;11179;52.106;21.024;2023-11-22T12:15:44;101639.44;;;-0.51;48.50
22031;BME280;11179;52.106;21.024;2023-11-22T12:18:10;101623.97;;;-0.49;48.51
22031;BME280;11179;52.106;21.024;2023-11-22T12:20:37;101626.25;;;-0.37;48.46
22031;BME280;11179;52.106;21.024;2023-11-22T12:23:02;101624.91;;;-0.41;48.20
22031;BME280;11179;52.106;21.024;2023-11-22T12:25:29;101639.44;;;-0.34;48.03
22031;BME280;11179;52.106;21.024;2023-11-22T12:27:55;101630.66;;;-0.36;48.16
22031;BME280;11179;52.106;21.024;2023-11-22T12:30:33;101647.00;;;-0.37;47.78
22031;BME280;11179;52.106;21.024;2023-11-22T12:33:06;101645.28;;;-0.38;47.93
22031;BME280;11179;52.106;21.024;2023-11-22T12:35:35;101661.63;;;-0.40;47.97
22031;BME280;11179;52.106;21.024;2023-11-22T12:38:01;101661.34;;;-0.37;48.13